sensor_id;sensor_type;location;lat;lon;timestamp;P1;durP1;ratioP1;P2;durP2;ratioP2
10633;SDS011;5365;51.640;8.106;2022-11-20T00:01:32;23.17;;;14.47;;
10633;SDS011;5365;51.640;8.106;2022-11-20T00:03:55;25.90;;;14.87;;
10633;SDS011;5365;51.640;8.106;2022-11-20T00:06:19;29.67;;;16.07;;
10633;SDS011;5365;51.640;8.106;2022-11-20T00:08:41;29.23;;;16.77;;
10633;SDS011;5365;51.640;8.106;2022-11-20T00:11:07;28.70;;;15.53;;
10633;SDS011;5365;51.640;8.106;2022-11-20T00:13:35;26.43;;;16.40;;
10633;SDS011;5365;51.640;8.106;2022-11-20T00:15:58;27.03;;;17.13;;
10633;SDS011;5365;51.640;8.106;2022-11-20T00:18:20;25.77;;;15.27;;
10633;SDS011;5365;51.640;8.106;2022-11-20T00:20:42;28.30;;;17.03;;
10633;SDS011;5365;51.640;8.106;2022-11-20T00:23:04;29.97;;;18.80;;
10633;SDS011;5365;51.640;8.106;2022-11-20T00:25:27;28.07;;;17.63;;
10633;SDS011;5365;51.640;8.106;2022-11-20T00:27:48;30.10;;;17.50;;
10633;SDS011;5365;51.640;8.106;2022-11-20T00:30:10;31.17;;;19.03;;
10633;SDS011;5365;51.640;8.106;2022-11-20T00:32:35;33.53;;;19.53;;
10633;SDS011;5365;51.640;8.106;2022-11-20T00:34:56;32.80;;;19.90;;
10633;SDS011;5365;51.640;8.106;2022-11-20T00:37:18;34.57;;;21.30;;
10633;SDS011;5365;51.640;8.106;2022-11-20T00:39:40;33.57;;;19.37;;
10633;SDS011;5365;51.640;8.106;2022-11-20T00:42:01;32.47;;;20.57;;
10633;SDS011;5365;51.640;8.106;2022-11-20T00:44:23;30.67;;;19.37;;
10633;SDS011;5365;51.640;8.106;2022-11-20T00:46:45;40.47;;;21.23;;
10633;SDS011;5365;51.640;8.106;2022-11-20T00:49:06;41.87;;;22.77;;
10633;SDS011;5365;51.640;8.106;2022-11-20T00:51:28;40.40;;;22.03;;
10633;SDS011;5365;51.640;8.106;2022-11-20T00:53:50;36.80;;;22.00;;
10633;SDS011;5365;51.640;8.106;2022-11-20T00:56:13;38.30;;;20.97;;
10633;SDS011;5365;51.640;8.106;2022-11-20T00:58:37;34.80;;;20.53;;
10633;SDS011;5365;51.640;8.106;2022-11-20T01:01:03;34.57;;;19.03;;
10633;SDS011;5365;51.640;8.106;2022-11-20T01:03:26;31.50;;;17.73;;
10633;SDS011;5365;51.640;8.106;2022-11-20T01:05:48;36.20;;;21.20;;
10633;SDS011;5365;51.640;8.106;2022-11-20T01:08:10;37.60;;;21.20;;
10633;SDS011;5365;51.640;8.106;2022-11-20T01:10:32;38.43;;;21.43;;
10633;SDS011;5365;51.640;8.106;2022-11-20T01:12:53;37.90;;;20.13;;
10633;SDS011;5365;51.640;8.106;2022-11-20T01:15:35;35.03;;;20.83;;
10633;SDS011;5365;51.640;8.106;2022-11-20T01:17:57;35.50;;;21.47;;
10633;SDS011;5365;51.640;8.106;2022-11-20T01:20:19;34.00;;;21.13;;
10633;SDS011;5365;51.640;8.106;2022-11-20T01:22:41;35.43;;;20.37;;
10633;SDS011;5365;51.640;8.106;2022-11-20T01:25:02;36.30;;;21.47;;
10633;SDS011;5365;51.640;8.106;2022-11-20T01:27:24;38.77;;;21.63;;
10633;SDS011;5365;51.640;8.106;2022-11-20T01:29:46;35.87;;;21.40;;
10633;SDS011;5365;51.640;8.106;2022-11-20T01:32:08;35.40;;;21.00;;
10633;SDS011;5365;51.640;8.106;2022-11-20T01:34:30;36.83;;;19.77;;
10633;SDS011;5365;51.640;8.106;2022-11-20T01:36:52;32.50;;;20.90;;
10633;SDS011;5365;51.640;8.106;2022-11-20T01:39:15;33.23;;;20.40;;
10633;SDS011;5365;51.640;8.106;2022-11-20T01:41:39;33.27;;;20.83;;
10633;SDS011;5365;51.640;8.106;2022-11-20T01:44:20;41.13;;;22.07;;
10633;SDS011;5365;51.640;8.106;2022-11-20T01:46:52;36.33;;;20.83;;
10633;SDS011;5365;51.640;8.106;2022-11-20T01:49:29;36.63;;;22.67;;
10633;SDS011;5365;51.640;8.106;2022-11-20T01:52:00;36.50;;;21.50;;
10633;SDS011;5365;51.640;8.106;2022-11-20T01:54:25;34.83;;;21.77;;
10633;SDS011;5365;51.640;8.106;2022-11-20T01:56:52;39.83;;;21.47;;
10633;SDS011;5365;51.640;8.106;2022-11-20T01:59:16;35.60;;;21.57;;
10633;SDS011;5365;51.640;8.106;2022-11-20T02:01:39;36.00;;;22.53;;
10633;SDS011;5365;51.640;8.106;2022-11-20T02:04:01;39.20;;;22.80;;
10633;SDS011;5365;51.640;8.106;2022-11-20T02:06:24;38.60;;;21.57;;
10633;SDS011;5365;51.640;8.106;2022-11-20T02:08:51;35.17;;;21.53;;
10633;SDS011;5365;51.640;8.106;2022-11-20T02:11:13;43.47;;;22.93;;
10633;SDS011;5365;51.640;8.106;2022-11-20T02:13:35;45.50;;;24.13;;
10633;SDS011;5365;51.640;8.106;2022-11-20T02:16:08;41.90;;;21.53;;
10633;SDS011;5365;51.640;8.106;2022-11-20T02:18:42;44.87;;;22.80;;
10633;SDS011;5365;51.640;8.106;2022-11-20T02:21:10;40.17;;;20.63;;
10633;SDS011;5365;51.640;8.106;2022-11-20T02:26:17;34.73;;;18.73;;
10633;SDS011;5365;51.640;8.106;2022-11-20T02:28:39;36.97;;;18.13;;
10633;SDS011;5365;51.640;8.106;2022-11-20T02:31:01;36.20;;;18.30;;
10633;SDS011;5365;51.640;8.106;2022-11-20T02:33:23;32.33;;;17.90;;
10633;SDS011;5365;51.640;8.106;2022-11-20T02:35:45;35.17;;;18.13;;
10633;SDS011;5365;51.640;8.106;2022-11-20T02:38:08;37.23;;;18.23;;
10633;SDS011;5365;51.640;8.106;2022-11-20T02:40:30;34.93;;;17.60;;
10633;SDS011;5365;51.640;8.106;2022-11-20T02:42:52;31.07;;;17.13;;
10633;SDS011;5365;51.640;8.106;2022-11-20T02:45:14;28.33;;;16.77;;
10633;SDS011;5365;51.640;8.106;2022-11-20T02:47:35;31.33;;;16.37;;
10633;SDS011;5365;51.640;8.106;2022-11-20T02:49:58;34.43;;;17.47;;
10633;SDS011;5365;51.640;8.106;2022-11-20T02:52:19;30.67;;;17.67;;
10633;SDS011;5365;51.640;8.106;2022-11-20T02:54:41;30.77;;;17.73;;
10633;SDS011;5365;51.640;8.106;2022-11-20T02:57:03;31.07;;;17.90;;
10633;SDS011;5365;51.640;8.106;2022-11-20T02:59:24;32.37;;;18.00;;
10633;SDS011;5365;51.640;8.106;2022-11-20T03:01:46;32.83;;;17.17;;
10633;SDS011;5365;51.640;8.106;2022-11-20T03:04:08;29.13;;;16.87;;
10633;SDS011;5365;51.640;8.106;2022-11-20T03:06:30;33.17;;;18.00;;
10633;SDS011;5365;51.640;8.106;2022-11-20T03:08:51;30.83;;;17.60;;
10633;SDS011;5365;51.640;8.106;2022-11-20T03:11:13;29.73;;;18.13;;
10633;SDS011;5365;51.640;8.106;2022-11-20T03:13:35;30.40;;;17.93;;
10633;SDS011;5365;51.640;8.106;2022-11-20T03:15:57;31.73;;;17.60;;
10633;SDS011;5365;51.640;8.106;2022-11-20T03:18:18;31.67;;;18.07;;
10633;SDS011;5365;51.640;8.106;2022-11-20T03:20:40;30.43;;;17.23;;
10633;SDS011;5365;51.640;8.106;2022-11-20T03:23:02;29.00;;;18.10;;
10633;SDS011;5365;51.640;8.106;2022-11-20T03:25:24;30.23;;;16.77;;
10633;SDS011;5365;51.640;8.106;2022-11-20T03:27:46;28.93;;;17.00;;
10633;SDS011;5365;51.640;8.106;2022-11-20T03:30:07;24.33;;;15.60;;
10633;SDS011;5365;51.640;8.106;2022-11-20T03:32:30;27.37;;;16.23;;
10633;SDS011;5365;51.640;8.106;2022-11-20T03:34:51;25.53;;;15.67;;
10633;SDS011;5365;51.640;8.106;2022-11-20T03:37:13;29.43;;;16.60;;
10633;SDS011;5365;51.640;8.106;2022-11-20T03:39:35;25.17;;;15.97;;
10633;SDS011;5365;51.640;8.106;2022-11-20T03:41:56;27.97;;;16.60;;
10633;SDS011;5365;51.640;8.106;2022-11-20T03:44:20;27.10;;;15.73;;
10633;SDS011;5365;51.640;8.106;2022-11-20T03:46:42;25.60;;;14.73;;
10633;SDS011;5365;51.640;8.106;2022-11-20T03:49:04;27.47;;;15.53;;
10633;SDS011;5365;51.640;8.106;2022-11-20T03:51:27;22.60;;;14.67;;
10633;SDS011;5365;51.640;8.106;2022-11-20T03:53:56;22.03;;;13.90;;
10633;SDS011;5365;51.640;8.106;2022-11-20T03:56:20;21.97;;;14.73;;
10633;SDS011;5365;51.640;8.106;2022-11-20T03:58:44;28.03;;;15.07;;
10633;SDS011;5365;51.640;8.106;2022-11-20T04:01:19;20.17;;;12.93;;
10633;SDS011;5365;51.640;8.106;2022-11-20T04:03:42;21.33;;;13.80;;
10633;SDS011;5365;51.640;8.106;2022-11-20T04:06:06;22.53;;;12.87;;
10633;SDS011;5365;51.640;8.106;2022-11-20T04:08:30;19.40;;;12.30;;
10633;SDS011;5365;51.640;8.106;2022-11-20T04:10:52;24.13;;;13.73;;
10633;SDS011;5365;51.640;8.106;2022-11-20T04:13:13;22.20;;;14.13;;
10633;SDS011;5365;51.640;8.106;2022-11-20T04:15:35;24.23;;;12.77;;
10633;SDS011;5365;51.640;8.106;2022-11-20T04:17:58;19.17;;;11.87;;
10633;SDS011;5365;51.640;8.106;2022-11-20T04:20:20;26.13;;;13.30;;
10633;SDS011;5365;51.640;8.106;2022-11-20T04:22:42;22.93;;;12.33;;
10633;SDS011;5365;51.640;8.106;2022-11-20T04:25:03;24.80;;;12.20;;
10633;SDS011;5365;51.640;8.106;2022-11-20T04:27:25;21.13;;;12.40;;
10633;SDS011;5365;51.640;8.106;2022-11-20T04:29:47;23.50;;;12.13;;
10633;SDS011;5365;51.640;8.106;2022-11-20T04:32:09;17.93;;;11.10;;
10633;SDS011;5365;51.640;8.106;2022-11-20T04:34:30;25.03;;;12.63;;
10633;SDS011;5365;51.640;8.106;2022-11-20T04:36:52;21.07;;;11.20;;
10633;SDS011;5365;51.640;8.106;2022-11-20T04:39:14;19.67;;;11.67;;
10633;SDS011;5365;51.640;8.106;2022-11-20T04:41:39;19.93;;;11.77;;
10633;SDS011;5365;51.640;8.106;2022-11-20T04:44:02;19.23;;;11.37;;
10633;SDS011;5365;51.640;8.106;2022-11-20T04:46:25;18.93;;;11.10;;
10633;SDS011;5365;51.640;8.106;2022-11-20T04:48:47;19.07;;;11.50;;
10633;SDS011;5365;51.640;8.106;2022-11-20T04:51:09;17.60;;;10.60;;
10633;SDS011;5365;51.640;8.106;2022-11-20T04:53:31;16.63;;;9.73;;
10633;SDS011;5365;51.640;8.106;2022-11-20T04:55:58;14.87;;;9.50;;
10633;SDS011;5365;51.640;8.106;2022-11-20T04:58:24;18.50;;;11.20;;
10633;SDS011;5365;51.640;8.106;2022-11-20T05:00:45;20.80;;;10.67;;
10633;SDS011;5365;51.640;8.106;2022-11-20T05:03:07;18.03;;;10.43;;
10633;SDS011;5365;51.640;8.106;2022-11-20T05:05:29;18.33;;;9.93;;
10633;SDS011;5365;51.640;8.106;2022-11-20T05:07:50;18.40;;;10.40;;
10633;SDS011;5365;51.640;8.106;2022-11-20T05:10:12;17.87;;;10.27;;
10633;SDS011;5365;51.640;8.106;2022-11-20T05:12:34;18.33;;;9.87;;
10633;SDS011;5365;51.640;8.106;2022-11-20T05:14:55;17.80;;;10.17;;
10633;SDS011;5365;51.640;8.106;2022-11-20T05:17:17;17.27;;;10.10;;
10633;SDS011;5365;51.640;8.106;2022-11-20T05:19:39;17.63;;;9.17;;
10633;SDS011;5365;51.640;8.106;2022-11-20T05:22:00;18.47;;;9.83;;
10633;SDS011;5365;51.640;8.106;2022-11-20T05:24:22;20.30;;;10.10;;
10633;SDS011;5365;51.640;8.106;2022-11-20T05:26:44;21.83;;;10.00;;
10633;SDS011;5365;51.640;8.106;2022-11-20T05:29:06;18.67;;;9.57;;
10633;SDS011;5365;51.640;8.106;2022-11-20T05:31:27;19.17;;;9.70;;
10633;SDS011;5365;51.640;8.106;2022-11-20T05:33:49;19.87;;;10.10;;
10633;SDS011;5365;51.640;8.106;2022-11-20T05:36:11;18.37;;;9.77;;
10633;SDS011;5365;51.640;8.106;2022-11-20T05:38:34;21.63;;;9.53;;
10633;SDS011;5365;51.640;8.106;2022-11-20T05:41:02;18.50;;;10.60;;
10633;SDS011;5365;51.640;8.106;2022-11-20T05:43:24;19.17;;;10.27;;
10633;SDS011;5365;51.640;8.106;2022-11-20T05:45:52;20.33;;;10.87;;
10633;SDS011;5365;51.640;8.106;2022-11-20T05:48:15;19.47;;;10.07;;
10633;SDS011;5365;51.640;8.106;2022-11-20T05:50:36;18.70;;;10.33;;
10633;SDS011;5365;51.640;8.106;2022-11-20T05:52:59;20.73;;;10.53;;
10633;SDS011;5365;51.640;8.106;2022-11-20T05:55:21;18.20;;;10.17;;
10633;SDS011;5365;51.640;8.106;2022-11-20T05:57:42;17.50;;;9.80;;
10633;SDS011;5365;51.640;8.106;2022-11-20T06:00:04;22.00;;;10.10;;
10633;SDS011;5365;51.640;8.106;2022-11-20T06:02:26;19.63;;;9.60;;
10633;SDS011;5365;51.640;8.106;2022-11-20T06:04:48;22.00;;;9.93;;
10633;SDS011;5365;51.640;8.106;2022-11-20T06:07:10;17.43;;;9.97;;
10633;SDS011;5365;51.640;8.106;2022-11-20T06:09:32;19.17;;;10.27;;
10633;SDS011;5365;51.640;8.106;2022-11-20T06:11:54;20.57;;;10.00;;
10633;SDS011;5365;51.640;8.106;2022-11-20T06:14:15;20.13;;;9.90;;
10633;SDS011;5365;51.640;8.106;2022-11-20T06:16:37;17.40;;;9.17;;
10633;SDS011;5365;51.640;8.106;2022-11-20T06:18:59;16.23;;;9.40;;
10633;SDS011;5365;51.640;8.106;2022-11-20T06:21:21;22.97;;;10.30;;
10633;SDS011;5365;51.640;8.106;2022-11-20T06:23:43;18.70;;;9.20;;
10633;SDS011;5365;51.640;8.106;2022-11-20T06:26:07;17.57;;;9.17;;
10633;SDS011;5365;51.640;8.106;2022-11-20T06:28:30;21.57;;;10.03;;
10633;SDS011;5365;51.640;8.106;2022-11-20T06:30:52;18.77;;;9.47;;
10633;SDS011;5365;51.640;8.106;2022-11-20T06:33:14;19.10;;;9.63;;
10633;SDS011;5365;51.640;8.106;2022-11-20T06:35:35;18.73;;;9.53;;
10633;SDS011;5365;51.640;8.106;2022-11-20T06:37:57;17.30;;;9.27;;
10633;SDS011;5365;51.640;8.106;2022-11-20T06:40:19;21.60;;;10.20;;
10633;SDS011;5365;51.640;8.106;2022-11-20T06:42:40;18.70;;;9.80;;
10633;SDS011;5365;51.640;8.106;2022-11-20T06:45:02;22.53;;;9.80;;
10633;SDS011;5365;51.640;8.106;2022-11-20T06:47:24;17.53;;;9.20;;
10633;SDS011;5365;51.640;8.106;2022-11-20T06:49:46;21.70;;;9.70;;
10633;SDS011;5365;51.640;8.106;2022-11-20T06:52:07;16.97;;;9.07;;
10633;SDS011;5365;51.640;8.106;2022-11-20T06:54:29;22.47;;;10.93;;
10633;SDS011;5365;51.640;8.106;2022-11-20T06:56:51;23.47;;;10.27;;
10633;SDS011;5365;51.640;8.106;2022-11-20T06:59:12;22.80;;;10.60;;
10633;SDS011;5365;51.640;8.106;2022-11-20T07:01:34;22.17;;;9.97;;
10633;SDS011;5365;51.640;8.106;2022-11-20T07:03:56;20.37;;;9.30;;
10633;SDS011;5365;51.640;8.106;2022-11-20T07:06:18;20.50;;;9.90;;
10633;SDS011;5365;51.640;8.106;2022-11-20T07:08:39;20.13;;;10.10;;
10633;SDS011;5365;51.640;8.106;2022-11-20T07:11:02;17.37;;;9.33;;
10633;SDS011;5365;51.640;8.106;2022-11-20T07:13:26;22.13;;;10.30;;
10633;SDS011;5365;51.640;8.106;2022-11-20T07:15:49;20.00;;;10.77;;
10633;SDS011;5365;51.640;8.106;2022-11-20T07:18:10;20.57;;;10.17;;
10633;SDS011;5365;51.640;8.106;2022-11-20T07:20:32;19.73;;;10.80;;
10633;SDS011;5365;51.640;8.106;2022-11-20T07:22:54;21.97;;;11.00;;
10633;SDS011;5365;51.640;8.106;2022-11-20T07:25:17;21.87;;;11.73;;
10633;SDS011;5365;51.640;8.106;2022-11-20T07:27:38;18.10;;;12.07;;
10633;SDS011;5365;51.640;8.106;2022-11-20T07:30:00;21.83;;;12.60;;
10633;SDS011;5365;51.640;8.106;2022-11-20T07:32:22;23.27;;;12.40;;
10633;SDS011;5365;51.640;8.106;2022-11-20T07:34:44;25.20;;;13.50;;
10633;SDS011;5365;51.640;8.106;2022-11-20T07:37:06;22.97;;;12.73;;
10633;SDS011;5365;51.640;8.106;2022-11-20T07:39:30;24.13;;;13.23;;
10633;SDS011;5365;51.640;8.106;2022-11-20T07:41:52;24.50;;;12.33;;
10633;SDS011;5365;51.640;8.106;2022-11-20T07:44:14;20.80;;;12.03;;
10633;SDS011;5365;51.640;8.106;2022-11-20T07:46:35;20.17;;;12.40;;
10633;SDS011;5365;51.640;8.106;2022-11-20T07:48:57;21.97;;;12.00;;
10633;SDS011;5365;51.640;8.106;2022-11-20T07:51:19;20.30;;;12.30;;
10633;SDS011;5365;51.640;8.106;2022-11-20T07:53:40;22.23;;;12.47;;
10633;SDS011;5365;51.640;8.106;2022-11-20T07:56:02;21.97;;;12.10;;
10633;SDS011;5365;51.640;8.106;2022-11-20T07:58:24;24.77;;;12.80;;
10633;SDS011;5365;51.640;8.106;2022-11-20T08:00:46;22.63;;;12.67;;
10633;SDS011;5365;51.640;8.106;2022-11-20T08:03:08;24.07;;;13.03;;
10633;SDS011;5365;51.640;8.106;2022-11-20T08:05:30;25.90;;;13.00;;
10633;SDS011;5365;51.640;8.106;2022-11-20T08:07:52;23.77;;;12.43;;
10633;SDS011;5365;51.640;8.106;2022-11-20T08:10:14;26.27;;;11.97;;
10633;SDS011;5365;51.640;8.106;2022-11-20T08:12:43;21.63;;;11.97;;
10633;SDS011;5365;51.640;8.106;2022-11-20T08:15:24;24.17;;;13.23;;
10633;SDS011;5365;51.640;8.106;2022-11-20T08:17:46;19.90;;;12.80;;
10633;SDS011;5365;51.640;8.106;2022-11-20T08:20:17;23.97;;;13.03;;
10633;SDS011;5365;51.640;8.106;2022-11-20T08:22:39;22.13;;;12.70;;
10633;SDS011;5365;51.640;8.106;2022-11-20T08:25:00;24.47;;;11.87;;
10633;SDS011;5365;51.640;8.106;2022-11-20T08:27:22;22.80;;;12.63;;
10633;SDS011;5365;51.640;8.106;2022-11-20T08:29:44;24.70;;;13.07;;
10633;SDS011;5365;51.640;8.106;2022-11-20T08:32:06;20.47;;;12.63;;
10633;SDS011;5365;51.640;8.106;2022-11-20T08:34:28;22.30;;;11.70;;
10633;SDS011;5365;51.640;8.106;2022-11-20T08:36:49;22.13;;;12.27;;
10633;SDS011;5365;51.640;8.106;2022-11-20T08:39:11;22.10;;;12.03;;
10633;SDS011;5365;51.640;8.106;2022-11-20T08:41:33;21.83;;;11.77;;
10633;SDS011;5365;51.640;8.106;2022-11-20T08:43:58;21.23;;;11.00;;
10633;SDS011;5365;51.640;8.106;2022-11-20T08:46:21;17.60;;;10.97;;
10633;SDS011;5365;51.640;8.106;2022-11-20T08:48:44;20.70;;;11.25;;
10633;SDS011;5365;51.640;8.106;2022-11-20T08:51:06;22.33;;;11.90;;
10633;SDS011;5365;51.640;8.106;2022-11-20T08:53:27;19.13;;;11.43;;
10633;SDS011;5365;51.640;8.106;2022-11-20T08:55:49;19.17;;;11.27;;
10633;SDS011;5365;51.640;8.106;2022-11-20T08:58:11;18.67;;;11.47;;
10633;SDS011;5365;51.640;8.106;2022-11-20T09:00:33;19.23;;;10.90;;
10633;SDS011;5365;51.640;8.106;2022-11-20T09:02:55;17.03;;;11.10;;
10633;SDS011;5365;51.640;8.106;2022-11-20T09:05:17;18.53;;;11.70;;
10633;SDS011;5365;51.640;8.106;2022-11-20T09:07:38;19.50;;;10.83;;
10633;SDS011;5365;51.640;8.106;2022-11-20T09:10:01;16.77;;;10.83;;
10633;SDS011;5365;51.640;8.106;2022-11-20T09:12:42;17.13;;;9.87;;
10633;SDS011;5365;51.640;8.106;2022-11-20T09:15:04;17.63;;;10.20;;
10633;SDS011;5365;51.640;8.106;2022-11-20T09:17:26;19.83;;;10.07;;
10633;SDS011;5365;51.640;8.106;2022-11-20T09:19:48;16.83;;;10.77;;
10633;SDS011;5365;51.640;8.106;2022-11-20T09:22:10;18.50;;;10.70;;
10633;SDS011;5365;51.640;8.106;2022-11-20T09:24:31;16.67;;;10.00;;
10633;SDS011;5365;51.640;8.106;2022-11-20T09:26:53;17.83;;;11.30;;
10633;SDS011;5365;51.640;8.106;2022-11-20T09:29:15;16.93;;;10.63;;
10633;SDS011;5365;51.640;8.106;2022-11-20T09:31:36;19.23;;;11.03;;
10633;SDS011;5365;51.640;8.106;2022-11-20T09:33:58;17.37;;;10.27;;
10633;SDS011;5365;51.640;8.106;2022-11-20T09:36:20;16.30;;;9.80;;
10633;SDS011;5365;51.640;8.106;2022-11-20T09:38:42;15.90;;;10.47;;
10633;SDS011;5365;51.640;8.106;2022-11-20T09:41:05;21.33;;;11.63;;
10633;SDS011;5365;51.640;8.106;2022-11-20T09:43:32;19.80;;;10.77;;
10633;SDS011;5365;51.640;8.106;2022-11-20T09:46:11;19.17;;;11.10;;
10633;SDS011;5365;51.640;8.106;2022-11-20T09:48:50;21.23;;;11.63;;
10633;SDS011;5365;51.640;8.106;2022-11-20T09:51:59;19.93;;;10.53;;
10633;SDS011;5365;51.640;8.106;2022-11-20T09:54:23;20.43;;;11.33;;
10633;SDS011;5365;51.640;8.106;2022-11-20T09:56:50;20.63;;;10.40;;
10633;SDS011;5365;51.640;8.106;2022-11-20T10:05:09;19.07;;;11.10;;
10633;SDS011;5365;51.640;8.106;2022-11-20T10:07:36;21.10;;;11.20;;
10633;SDS011;5365;51.640;8.106;2022-11-20T10:10:00;18.53;;;10.73;;
10633;SDS011;5365;51.640;8.106;2022-11-20T10:12:27;19.63;;;11.77;;
10633;SDS011;5365;51.640;8.106;2022-11-20T10:17:30;18.97;;;12.20;;
10633;SDS011;5365;51.640;8.106;2022-11-20T10:20:14;17.00;;;10.57;;
10633;SDS011;5365;51.640;8.106;2022-11-20T10:25:24;23.67;;;14.37;;
10633;SDS011;5365;51.640;8.106;2022-11-20T10:28:09;20.40;;;11.90;;
10633;SDS011;5365;51.640;8.106;2022-11-20T10:30:37;18.70;;;12.30;;
10633;SDS011;5365;51.640;8.106;2022-11-20T10:33:06;19.93;;;12.10;;
10633;SDS011;5365;51.640;8.106;2022-11-20T10:41:00;23.37;;;13.93;;
10633;SDS011;5365;51.640;8.106;2022-11-20T10:43:41;20.37;;;12.87;;
10633;SDS011;5365;51.640;8.106;2022-11-20T10:46:05;21.73;;;12.03;;
10633;SDS011;5365;51.640;8.106;2022-11-20T10:48:31;20.23;;;12.60;;
10633;SDS011;5365;51.640;8.106;2022-11-20T10:53:42;20.30;;;12.20;;
10633;SDS011;5365;51.640;8.106;2022-11-20T10:56:05;19.30;;;12.10;;
10633;SDS011;5365;51.640;8.106;2022-11-20T10:58:36;18.40;;;12.07;;
10633;SDS011;5365;51.640;8.106;2022-11-20T11:01:13;24.30;;;13.23;;
10633;SDS011;5365;51.640;8.106;2022-11-20T11:03:36;20.47;;;12.60;;
10633;SDS011;5365;51.640;8.106;2022-11-20T11:06:08;21.07;;;12.73;;
10633;SDS011;5365;51.640;8.106;2022-11-20T11:08:35;21.57;;;13.37;;
10633;SDS011;5365;51.640;8.106;2022-11-20T11:11:00;20.60;;;13.40;;
10633;SDS011;5365;51.640;8.106;2022-11-20T11:13:28;22.17;;;13.17;;
10633;SDS011;5365;51.640;8.106;2022-11-20T11:15:51;20.30;;;13.20;;
10633;SDS011;5365;51.640;8.106;2022-11-20T11:18:22;19.40;;;12.07;;
10633;SDS011;5365;51.640;8.106;2022-11-20T11:20:49;21.17;;;13.57;;
10633;SDS011;5365;51.640;8.106;2022-11-20T11:23:22;17.50;;;12.03;;
10633;SDS011;5365;51.640;8.106;2022-11-20T11:25:56;18.03;;;11.43;;
10633;SDS011;5365;51.640;8.106;2022-11-20T11:28:21;19.90;;;11.83;;
10633;SDS011;5365;51.640;8.106;2022-11-20T11:30:44;15.47;;;11.43;;
10633;SDS011;5365;51.640;8.106;2022-11-20T11:33:08;16.77;;;10.00;;
10633;SDS011;5365;51.640;8.106;2022-11-20T11:35:31;14.17;;;10.00;;
10633;SDS011;5365;51.640;8.106;2022-11-20T11:38:06;15.80;;;11.10;;
10633;SDS011;5365;51.640;8.106;2022-11-20T11:40:34;12.60;;;9.03;;
10633;SDS011;5365;51.640;8.106;2022-11-20T11:42:58;13.87;;;9.40;;
10633;SDS011;5365;51.640;8.106;2022-11-20T11:45:21;13.80;;;9.43;;
10633;SDS011;5365;51.640;8.106;2022-11-20T11:47:44;16.17;;;10.77;;
10633;SDS011;5365;51.640;8.106;2022-11-20T11:52:32;15.43;;;10.03;;
10633;SDS011;5365;51.640;8.106;2022-11-20T11:55:09;15.07;;;10.00;;
10633;SDS011;5365;51.640;8.106;2022-11-20T12:02:36;13.63;;;8.90;;
10633;SDS011;5365;51.640;8.106;2022-11-20T12:05:30;12.80;;;9.83;;
10633;SDS011;5365;51.640;8.106;2022-11-20T12:08:05;11.97;;;8.87;;
10633;SDS011;5365;51.640;8.106;2022-11-20T12:11:00;11.30;;;8.07;;
10633;SDS011;5365;51.640;8.106;2022-11-20T12:16:23;9.37;;;7.10;;
10633;SDS011;5365;51.640;8.106;2022-11-20T12:18:46;10.63;;;8.77;;
10633;SDS011;5365;51.640;8.106;2022-11-20T12:32:13;12.47;;;9.47;;
10633;SDS011;5365;51.640;8.106;2022-11-20T12:43:01;12.87;;;8.70;;
10633;SDS011;5365;51.640;8.106;2022-11-20T12:46:14;10.80;;;8.77;;
10633;SDS011;5365;51.640;8.106;2022-11-20T12:48:52;13.43;;;9.67;;
10633;SDS011;5365;51.640;8.106;2022-11-20T12:51:34;10.80;;;8.60;;
10633;SDS011;5365;51.640;8.106;2022-11-20T12:54:26;12.27;;;9.40;;
10633;SDS011;5365;51.640;8.106;2022-11-20T12:56:50;12.27;;;8.97;;
10633;SDS011;5365;51.640;8.106;2022-11-20T13:01:54;11.07;;;9.17;;
10633;SDS011;5365;51.640;8.106;2022-11-20T13:06:55;15.27;;;9.27;;
10633;SDS011;5365;51.640;8.106;2022-11-20T13:09:18;11.97;;;9.63;;
10633;SDS011;5365;51.640;8.106;2022-11-20T13:11:48;12.77;;;9.63;;
10633;SDS011;5365;51.640;8.106;2022-11-20T13:17:01;13.10;;;9.63;;
10633;SDS011;5365;51.640;8.106;2022-11-20T13:19:27;14.57;;;9.73;;
10633;SDS011;5365;51.640;8.106;2022-11-20T13:21:50;15.57;;;9.90;;
10633;SDS011;5365;51.640;8.106;2022-11-20T13:26:40;15.60;;;10.70;;
10633;SDS011;5365;51.640;8.106;2022-11-20T13:29:15;15.17;;;11.10;;
10633;SDS011;5365;51.640;8.106;2022-11-20T13:31:40;15.53;;;11.13;;
10633;SDS011;5365;51.640;8.106;2022-11-20T13:34:05;16.77;;;11.63;;
10633;SDS011;5365;51.640;8.106;2022-11-20T13:36:28;15.43;;;11.03;;
10633;SDS011;5365;51.640;8.106;2022-11-20T13:38:52;15.73;;;10.90;;
10633;SDS011;5365;51.640;8.106;2022-11-20T13:44:21;16.53;;;11.40;;
10633;SDS011;5365;51.640;8.106;2022-11-20T13:46:57;16.30;;;11.97;;
10633;SDS011;5365;51.640;8.106;2022-11-20T13:49:37;18.17;;;12.03;;
10633;SDS011;5365;51.640;8.106;2022-11-20T13:54:59;14.90;;;11.10;;
10633;SDS011;5365;51.640;8.106;2022-11-20T13:57:39;15.33;;;10.77;;
10633;SDS011;5365;51.640;8.106;2022-11-20T14:00:42;17.93;;;10.07;;
10633;SDS011;5365;51.640;8.106;2022-11-20T14:05:26;16.53;;;10.27;;
10633;SDS011;5365;51.640;8.106;2022-11-20T14:07:49;17.13;;;10.80;;
10633;SDS011;5365;51.640;8.106;2022-11-20T14:12:52;17.50;;;11.00;;
10633;SDS011;5365;51.640;8.106;2022-11-20T14:17:52;16.43;;;11.00;;
10633;SDS011;5365;51.640;8.106;2022-11-20T14:20:14;17.73;;;11.67;;
10633;SDS011;5365;51.640;8.106;2022-11-20T14:22:36;16.27;;;11.27;;
10633;SDS011;5365;51.640;8.106;2022-11-20T14:27:23;17.47;;;11.53;;
10633;SDS011;5365;51.640;8.106;2022-11-20T14:29:45;16.73;;;11.40;;
10633;SDS011;5365;51.640;8.106;2022-11-20T14:32:08;20.03;;;12.13;;
10633;SDS011;5365;51.640;8.106;2022-11-20T14:34:31;18.87;;;12.73;;
10633;SDS011;5365;51.640;8.106;2022-11-20T14:37:04;19.37;;;12.63;;
10633;SDS011;5365;51.640;8.106;2022-11-20T14:39:29;19.60;;;13.13;;
10633;SDS011;5365;51.640;8.106;2022-11-20T14:41:53;19.13;;;12.03;;
10633;SDS011;5365;51.640;8.106;2022-11-20T14:44:15;19.27;;;11.07;;
10633;SDS011;5365;51.640;8.106;2022-11-20T14:46:37;16.83;;;11.17;;
10633;SDS011;5365;51.640;8.106;2022-11-20T14:49:00;16.90;;;11.90;;
10633;SDS011;5365;51.640;8.106;2022-11-20T14:54:18;15.93;;;11.47;;
10633;SDS011;5365;51.640;8.106;2022-11-20T14:59:25;18.43;;;11.57;;
10633;SDS011;5365;51.640;8.106;2022-11-20T15:01:54;17.33;;;11.23;;
10633;SDS011;5365;51.640;8.106;2022-11-20T15:04:20;18.40;;;11.73;;
10633;SDS011;5365;51.640;8.106;2022-11-20T15:06:49;18.67;;;12.13;;
10633;SDS011;5365;51.640;8.106;2022-11-20T15:09:13;15.13;;;10.20;;
10633;SDS011;5365;51.640;8.106;2022-11-20T15:11:36;18.07;;;11.43;;
10633;SDS011;5365;51.640;8.106;2022-11-20T15:13:59;15.27;;;10.47;;
10633;SDS011;5365;51.640;8.106;2022-11-20T15:16:24;19.10;;;11.37;;
10633;SDS011;5365;51.640;8.106;2022-11-20T15:18:48;17.03;;;11.43;;
10633;SDS011;5365;51.640;8.106;2022-11-20T15:21:10;15.43;;;10.80;;
10633;SDS011;5365;51.640;8.106;2022-11-20T15:23:34;18.23;;;11.07;;
10633;SDS011;5365;51.640;8.106;2022-11-20T15:25:55;18.33;;;10.57;;
10633;SDS011;5365;51.640;8.106;2022-11-20T15:30:39;17.90;;;10.20;;
10633;SDS011;5365;51.640;8.106;2022-11-20T15:33:01;15.47;;;10.27;;
10633;SDS011;5365;51.640;8.106;2022-11-20T15:35:22;15.53;;;10.07;;
10633;SDS011;5365;51.640;8.106;2022-11-20T15:37:44;16.87;;;10.73;;
10633;SDS011;5365;51.640;8.106;2022-11-20T15:40:06;16.33;;;10.90;;
10633;SDS011;5365;51.640;8.106;2022-11-20T15:42:28;17.10;;;11.40;;
10633;SDS011;5365;51.640;8.106;2022-11-20T15:44:50;19.33;;;12.33;;
10633;SDS011;5365;51.640;8.106;2022-11-20T15:47:12;14.87;;;10.20;;